»·PEaware :: N80678 KSLE-KMFR

N80678 :: KSLE-KMFR

FLIGHT INFORMATION

Flight Status: Arrived
Operator: Privately registered:
United States
More flights under this callsign
Pilot: Isaac M. (22798)
Aircraft: CESSNA 172 SKYHAWK
(C172)
More flights by this aircraft type
Origin: KSLE McNary
United States
Destination: KMFR Rogue Valley Intl-Medford
United States
More flights between these airports :: More routes between these airports
Route: KSLE KMFR
File this flight plan on PilotEdge
Remarks: KSLE KMFR
Altitude:
(Current/Filed)
5,500ft
Speed:
(Current/Filed)
115kts
Departed: 01-Jan-19 10:56 AM
Arrived: 01-Jan-19 12:29 PM
Distance/Time
Traveled:
152nm/1:33
Distance/Time
To Go:
Arrived

Flight Plot

Page will automatically refresh every two minutes.

Flight plan parsing failed; only flown route is shown


Map Options




Map Legend


Flown Route
Filed Route
Departure Airport
Arrival Airport
Navaid (VOR, NDB)
Fix

Horizontal Profiles

Position Reports

Time Latitude Longitude Heading Altitude Ground
Speed
01-Jan-19 10:54 44.912905 -123.000507 183 217ft 0kts
01-Jan-19 10:55 44.913006 -123.001183 293 217ft 12kts
01-Jan-19 10:56 44.920584 -123.002076 11 327ft 85kts
01-Jan-19 10:57 44.927399 -122.976377 158 1307ft 90kts
01-Jan-19 10:58 44.905849 -122.988079 201 2435ft 91kts
01-Jan-19 10:59 44.881879 -122.995832 186 3540ft 85kts
01-Jan-19 11:00 44.859573 -122.997688 181 4541ft 81kts
01-Jan-19 11:01 44.835987 -122.997762 179 5352ft 96kts
01-Jan-19 11:02 44.802954 -122.996907 178 5500ft 130kts
01-Jan-19 11:03 44.767147 -122.995385 178 5495ft 128kts
01-Jan-19 11:04 44.731486 -122.993677 176 5490ft 128kts
01-Jan-19 11:05 44.695890 -122.991891 176 5486ft 128kts
01-Jan-19 11:05 44.665857 -122.990381 175 5484ft 128kts
01-Jan-19 11:07 44.624460 -122.988303 174 5481ft 127kts
01-Jan-19 11:07 44.594876 -122.986822 174 5480ft 127kts
01-Jan-19 11:08 44.559751 -122.985066 173 5479ft 125kts
01-Jan-19 11:10 44.519406 -122.983050 173 5478ft 124kts
01-Jan-19 11:10 44.490770 -122.981622 172 5478ft 122kts
01-Jan-19 11:12 44.453923 -122.979788 172 5478ft 119kts
01-Jan-19 11:12 44.429324 -122.978562 172 5478ft 116kts
01-Jan-19 11:13 44.401281 -122.977070 183 5476ft 113kts
01-Jan-19 11:14 44.372593 -122.975731 183 5475ft 115kts
01-Jan-19 11:15 44.342409 -122.974275 183 5475ft 119kts
01-Jan-19 11:16 44.312829 -122.972830 183 5477ft 122kts
01-Jan-19 11:17 44.282886 -122.971345 183 5479ft 122kts
01-Jan-19 11:18 44.253328 -122.969883 183 5481ft 123kts
01-Jan-19 11:19 44.224273 -122.968449 183 5483ft 123kts
01-Jan-19 11:20 44.195154 -122.967013 183 5485ft 123kts
01-Jan-19 11:21 44.166260 -122.965591 183 5487ft 123kts
01-Jan-19 11:22 44.137020 -122.964153 183 5489ft 123kts
01-Jan-19 11:23 44.107777 -122.962716 183 5492ft 123kts
01-Jan-19 11:24 44.078758 -122.961292 183 5495ft 123kts
01-Jan-19 11:25 44.050051 -122.959884 183 5498ft 123kts
01-Jan-19 11:26 44.037138 -122.959251 183 5500ft 123kts
01-Jan-19 11:27 44.010596 -122.957952 183 5503ft 123kts
01-Jan-19 11:28 43.999157 -122.957392 183 5504ft 123kts
01-Jan-19 11:29 43.990631 -122.956975 183 5505ft 123kts
01-Jan-19 11:30 43.980344 -122.956472 183 5506ft 123kts
01-Jan-19 11:31 43.971218 -122.956026 183 5508ft 123kts
01-Jan-19 11:32 43.953901 -122.955179 183 5510ft 123kts
01-Jan-19 11:33 43.935703 -122.954290 183 5512ft 123kts
01-Jan-19 11:34 43.905143 -122.952799 183 5517ft 123kts
01-Jan-19 11:35 43.871888 -122.951006 182 5517ft 125kts
01-Jan-19 11:36 43.837053 -122.948930 182 5515ft 125kts
01-Jan-19 11:37 43.835975 -122.948873 182 5515ft 125kts
01-Jan-19 11:38 43.824142 -122.948257 182 5514ft 125kts
01-Jan-19 11:39 43.816318 -122.947860 182 5514ft 125kts
01-Jan-19 11:40 43.804253 -122.947256 182 5514ft 125kts
01-Jan-19 11:41 43.779169 -122.946021 182 5513ft 125kts
01-Jan-19 11:42 43.777511 -122.945940 182 5512ft 125kts
01-Jan-19 11:43 43.752163 -122.944704 182 5512ft 125kts
01-Jan-19 11:44 43.717311 -122.943012 182 5511ft 125kts
01-Jan-19 11:45 43.682437 -122.941321 182 5510ft 125kts
01-Jan-19 11:46 43.647485 -122.939643 182 5509ft 126kts
01-Jan-19 11:47 43.611943 -122.937932 181 5508ft 128kts
01-Jan-19 11:48 43.575929 -122.936192 179 5507ft 130kts
01-Jan-19 11:49 43.539596 -122.934435 178 5506ft 131kts
01-Jan-19 11:50 43.503205 -122.932666 177 5506ft 131kts
01-Jan-19 11:51 43.466708 -122.930893 178 5506ft 131kts
01-Jan-19 11:52 43.430188 -122.929133 178 5507ft 131kts
01-Jan-19 11:53 43.393813 -122.927383 178 5509ft 131kts
01-Jan-19 11:54 43.357337 -122.925632 178 5511ft 131kts
01-Jan-19 11:55 43.320823 -122.923881 178 5514ft 131kts
01-Jan-19 11:56 43.284415 -122.922137 178 5517ft 131kts
01-Jan-19 11:57 43.247970 -122.920393 177 5521ft 131kts
01-Jan-19 11:58 43.211472 -122.918649 177 5526ft 131kts
01-Jan-19 11:59 43.175119 -122.916914 177 5531ft 131kts
01-Jan-19 12:00 43.138543 -122.915170 177 5537ft 131kts
01-Jan-19 12:01 43.102121 -122.913436 177 5543ft 131kts
01-Jan-19 12:02 43.065650 -122.911701 177 5551ft 131kts
01-Jan-19 12:03 43.029136 -122.909969 177 5558ft 131kts
01-Jan-19 12:04 42.992607 -122.908242 177 5567ft 132kts
01-Jan-19 12:05 42.955814 -122.906490 177 5577ft 132kts
01-Jan-19 12:06 42.919075 -122.904752 177 5588ft 132kts
01-Jan-19 12:07 42.883443 -122.903067 177 5590ft 132kts
01-Jan-19 12:08 42.848611 -122.900466 173 5303ft 96kts
01-Jan-19 12:09 42.827029 -122.898191 175 4974ft 77kts
01-Jan-19 12:10 42.805819 -122.896866 175 5222ft 99kts
01-Jan-19 12:11 42.775473 -122.895361 176 5783ft 123kts
01-Jan-19 12:12 42.751222 -122.909610 247 5903ft 98kts
01-Jan-19 12:13 42.736338 -122.947580 247 6407ft 110kts
01-Jan-19 12:14 42.720769 -122.986354 247 6872ft 116kts
01-Jan-19 12:15 42.704676 -123.022309 231 7317ft 121kts
01-Jan-19 12:16 42.676082 -123.031995 161 7304ft 103kts
01-Jan-19 12:17 42.646059 -123.018532 154 6868ft 125kts
01-Jan-19 12:18 42.612706 -123.000087 157 6205ft 132kts
01-Jan-19 12:19 42.578194 -122.982175 156 5484ft 132kts
01-Jan-19 12:20 42.545413 -122.960734 158 4761ft 145kts
01-Jan-19 12:21 42.511814 -122.945397 158 4023ft 97kts
01-Jan-19 12:22 42.486340 -122.932321 157 3493ft 98kts
01-Jan-19 12:23 42.462033 -122.919495 157 2966ft 80kts
01-Jan-19 12:24 42.442811 -122.909270 157 2585ft 77kts
01-Jan-19 12:25 42.423091 -122.898826 158 2156ft 75kts
01-Jan-19 12:26 42.404628 -122.889051 158 1766ft 64kts
01-Jan-19 12:27 42.388354 -122.880380 159 1439ft 72kts
01-Jan-19 12:28 42.380481 -122.876957 264 1337ft 5kts
01-Jan-19 12:29 42.379843 -122.878642 229 1337ft 0kts
01-Jan-19 12:30 42.379843 -122.878642 229 1337ft 0kts
01-Jan-19 12:31 42.379843 -122.878642 229 1337ft 0kts
01-Jan-19 12:32 42.379843 -122.878642 229 1337ft 0kts
01-Jan-19 12:33 42.379843 -122.878642 229 1337ft 0kts
01-Jan-19 12:34 42.379843 -122.878642 229 1337ft 0kts
01-Jan-19 12:35 42.379843 -122.878642 229 1337ft 0kts
01-Jan-19 12:36 42.379843 -122.878642 229 1337ft 0kts
01-Jan-19 12:37 42.379843 -122.878642 229 1337ft 0kts
01-Jan-19 12:38 42.379843 -122.878642 229 1337ft 0kts
01-Jan-19 12:39 42.379843 -122.878642 229 1337ft 0kts
01-Jan-19 12:40 42.379843 -122.878642 229 1337ft 0kts

Navigation Log

Ident Type
Flight plan parsing failed, navigation log unavailable